Terminal Aerodrome Forecast
Issued by NWS

Home | Current Version | Previous Version | Text Only | Print | Product List | Glossary On
Versions: 1 2 3 4 5 6 7 8 9 10 11 12 13 14 15 16 17 18 19
728
FTUS41 KPBZ 231130
TAFZZV
TAF
KZZV 231130Z 2312/2412 05012KT P6SM -RA OVC050
     FM231400 05012KT 3SM -RA BR OVC025
     FM231600 05012KT 3SM -RA BR OVC015
     FM240000 02008KT P6SM VCSH OVC008
     FM240500 34005KT P6SM VCSH OVC015=

USA.gov is the U.S. government's official web portal to all federal, state and local government web resources and services.